createdAt,value
2022-10-13T00:00:54.976Z,83.65
2022-10-13T00:01:54.923Z,84.28
2022-10-13T00:02:54.884Z,85.41
2022-10-13T00:03:54.876Z,85.72
2022-10-13T00:04:54.871Z,86.24
2022-10-13T00:05:54.838Z,87.58
2022-10-13T00:06:54.873Z,88.51
2022-10-13T00:07:54.832Z,88.61
2022-10-13T00:08:54.842Z,88.61
2022-10-13T00:09:54.856Z,88.20
2022-10-13T00:10:54.773Z,87.58
2022-10-13T00:11:54.782Z,86.44
2022-10-13T00:12:54.781Z,85.31
2022-10-13T00:13:54.773Z,84.59
2022-10-13T00:14:54.753Z,84.17
2022-10-13T00:15:54.741Z,85.10
2022-10-13T00:16:54.692Z,85.93
2022-10-13T00:17:54.672Z,85.62
2022-10-13T00:18:54.703Z,84.89
2022-10-13T00:19:54.701Z,84.38
2022-10-13T00:20:54.642Z,84.38
2022-10-13T00:21:54.644Z,86.65
2022-10-13T00:22:54.660Z,86.96
2022-10-13T00:23:54.678Z,86.44
2022-10-13T00:24:54.622Z,85.62
2022-10-13T00:25:54.579Z,84.79
2022-10-13T00:26:54.579Z,85.00
2022-10-13T00:27:54.550Z,85.72
2022-10-13T00:28:54.610Z,86.44
2022-10-13T00:29:54.530Z,87.17
2022-10-13T00:30:54.520Z,87.68
2022-10-13T00:31:54.539Z,88.20
2022-10-13T00:32:54.508Z,88.31
2022-10-13T00:33:54.480Z,89.03
2022-10-13T00:34:54.469Z,89.44
2022-10-13T00:35:54.449Z,89.34
2022-10-13T00:36:54.448Z,89.54
2022-10-13T00:37:54.439Z,89.71
2022-10-13T00:38:54.446Z,90.12
2022-10-13T00:39:54.418Z,90.22
2022-10-13T00:40:54.383Z,90.33
2022-10-13T00:41:54.388Z,90.22
2022-10-13T00:42:54.358Z,90.33
2022-10-13T00:43:54.371Z,90.64
2022-10-13T00:44:54.321Z,90.95
2022-10-13T00:45:54.310Z,91.26
2022-10-13T00:46:54.298Z,91.16
2022-10-13T00:47:54.297Z,90.84
2022-10-13T00:48:54.310Z,90.89
2022-10-13T00:49:54.290Z,90.89
2022-10-13T00:50:54.249Z,90.78
2022-10-13T00:51:54.270Z,90.99
2022-10-13T00:52:54.218Z,91.30
2022-10-13T00:53:54.235Z,91.71
2022-10-13T00:54:54.235Z,91.61
2022-10-13T00:55:54.195Z,91.61
2022-10-13T00:56:54.175Z,91.61
2022-10-13T00:57:54.168Z,91.61
2022-10-13T00:58:54.166Z,91.20
2022-10-13T00:59:54.117Z,91.09
2022-10-13T01:00:54.230Z,91.30
2022-10-13T01:01:54.126Z,90.99
2022-10-13T01:02:54.119Z,90.78
2022-10-13T01:03:54.111Z,90.78
2022-10-13T01:04:54.153Z,90.99
2022-10-13T01:05:54.084Z,91.20
2022-10-13T01:06:54.073Z,91.30
2022-10-13T01:07:54.055Z,91.61
2022-10-13T01:08:54.067Z,91.30
2022-10-13T01:09:54.035Z,90.47
2022-10-13T01:10:54.015Z,89.65
2022-10-13T01:11:53.964Z,89.23
2022-10-13T01:12:53.966Z,89.34
2022-10-13T01:13:53.954Z,89.23
2022-10-13T01:14:53.974Z,88.92
2022-10-13T01:15:53.914Z,87.58
2022-10-13T01:16:53.925Z,86.13
2022-10-13T01:17:53.886Z,86.03
2022-10-13T01:18:53.954Z,86.82
2022-10-13T01:19:53.887Z,88.26
2022-10-13T01:20:53.876Z,88.78
2022-10-13T01:21:53.836Z,89.50
2022-10-13T01:22:53.844Z,89.81
2022-10-13T01:23:53.849Z,89.71
2022-10-13T01:24:53.805Z,89.15
2022-10-13T01:25:53.810Z,89.87
2022-10-13T01:26:53.836Z,90.59
2022-10-13T01:27:53.771Z,91.22
2022-10-13T01:28:53.820Z,91.73
2022-10-13T01:29:53.736Z,92.25
2022-10-13T01:30:53.734Z,92.46
2022-10-13T01:31:53.743Z,92.66
2022-10-13T01:32:53.734Z,92.97
2022-10-13T01:33:53.731Z,93.07
2022-10-13T01:34:53.696Z,93.13
2022-10-13T01:35:53.712Z,93.13
2022-10-13T01:36:53.662Z,93.54
2022-10-13T01:37:53.633Z,93.75
2022-10-13T01:38:53.642Z,93.85
2022-10-13T01:39:53.635Z,94.06
2022-10-13T01:40:53.641Z,94.17
2022-10-13T01:41:53.592Z,93.75
2022-10-13T01:42:53.602Z,93.85
2022-10-13T01:43:53.573Z,93.96
2022-10-13T01:44:53.543Z,94.17
2022-10-13T01:45:53.512Z,94.37
2022-10-13T01:46:53.503Z,94.57
2022-10-13T01:47:53.503Z,94.68
2022-10-13T01:48:53.510Z,94.68
2022-10-13T01:49:53.501Z,94.47
2022-10-13T01:50:53.480Z,94.17
2022-10-13T01:51:53.444Z,93.85
2022-10-13T01:52:53.470Z,93.54
2022-10-13T01:53:53.441Z,93.24
2022-10-13T01:54:53.413Z,92.82
2022-10-13T01:55:53.417Z,92.21
2022-10-13T01:56:53.380Z,92.31
2022-10-13T01:57:53.428Z,92.61
2022-10-13T01:58:53.377Z,92.72
2022-10-13T01:59:53.365Z,92.68
2022-10-13T02:00:53.395Z,92.68
2022-10-13T02:01:53.329Z,92.68
2022-10-13T02:02:53.304Z,92.88
2022-10-13T02:03:53.309Z,92.88
2022-10-13T02:04:53.299Z,92.99
2022-10-13T02:05:53.288Z,93.09
2022-10-13T02:06:53.260Z,93.19
2022-10-13T02:07:53.249Z,93.50
2022-10-13T02:08:53.271Z,93.81
2022-10-13T02:09:53.203Z,94.02
2022-10-13T02:10:53.200Z,94.02
2022-10-13T02:11:53.172Z,93.91
2022-10-13T02:12:53.227Z,93.91
2022-10-13T02:13:53.188Z,94.02
2022-10-13T02:14:53.172Z,94.23
2022-10-13T02:15:53.148Z,94.53
2022-10-13T02:16:53.121Z,95.10
2022-10-13T02:17:53.117Z,95.42
2022-10-13T02:18:53.128Z,95.62
2022-10-13T02:19:53.067Z,95.62
2022-10-13T02:20:53.087Z,95.73
2022-10-13T02:21:53.076Z,95.93
2022-10-13T02:22:53.049Z,95.93
2022-10-13T02:23:53.039Z,95.93
2022-10-13T02:24:53.028Z,96.03
2022-10-13T02:25:53.019Z,96.03
2022-10-13T02:26:53.007Z,96.03
2022-10-13T02:27:52.986Z,95.93
2022-10-13T02:28:53.013Z,95.83
2022-10-13T02:29:52.954Z,95.73
2022-10-13T02:30:52.948Z,95.62
2022-10-13T02:31:52.933Z,95.31
2022-10-13T02:32:52.930Z,95.00
2022-10-13T02:33:52.937Z,94.90
2022-10-13T02:34:52.915Z,94.70
2022-10-13T02:35:52.882Z,94.70
2022-10-13T02:36:52.857Z,94.70
2022-10-13T02:37:52.845Z,94.80
2022-10-13T02:38:52.839Z,95.00
2022-10-13T02:39:52.819Z,95.10
2022-10-13T02:40:52.815Z,95.10
2022-10-13T02:41:52.800Z,95.00
2022-10-13T02:42:52.847Z,94.70
2022-10-13T02:43:52.785Z,94.49
2022-10-13T02:44:52.784Z,94.49
2022-10-13T02:45:52.732Z,94.49
2022-10-13T02:46:52.734Z,94.59
2022-10-13T02:47:52.764Z,94.70
2022-10-13T02:48:52.710Z,94.59
2022-10-13T02:49:52.721Z,94.49
2022-10-13T02:50:52.687Z,93.87
2022-10-13T02:51:52.673Z,93.77
2022-10-13T02:52:52.673Z,93.87
2022-10-13T02:53:52.623Z,93.87
2022-10-13T02:54:52.653Z,93.66
2022-10-13T02:55:52.611Z,93.56
2022-10-13T02:56:52.630Z,93.66
2022-10-13T02:57:52.592Z,93.56
2022-10-13T02:58:52.574Z,93.56
2022-10-13T02:59:52.563Z,93.77
2022-10-13T03:00:52.654Z,93.35
2022-10-13T03:01:52.513Z,93.25
2022-10-13T03:02:52.536Z,93.35
2022-10-13T03:03:52.494Z,93.35
2022-10-13T03:04:52.534Z,93.25
2022-10-13T03:05:52.477Z,92.94
2022-10-13T03:06:52.492Z,92.53
2022-10-13T03:07:52.451Z,92.22
2022-10-13T03:08:52.462Z,92.33
2022-10-13T03:09:52.495Z,92.74
2022-10-13T03:10:52.417Z,93.15
2022-10-13T03:11:52.402Z,93.46
2022-10-13T03:12:52.386Z,93.52
2022-10-13T03:13:52.391Z,93.41
2022-10-13T03:14:52.375Z,93.41
2022-10-13T03:15:52.392Z,93.52
2022-10-13T03:16:52.349Z,93.62
2022-10-13T03:17:52.341Z,93.73
2022-10-13T03:18:52.318Z,93.62
2022-10-13T03:19:52.360Z,92.38
2022-10-13T03:20:52.281Z,92.59
2022-10-13T03:21:52.263Z,93.01
2022-10-13T03:22:52.262Z,93.52
2022-10-13T03:23:52.240Z,93.73
2022-10-13T03:24:52.241Z,93.93
2022-10-13T03:25:52.202Z,94.03
2022-10-13T03:26:52.214Z,94.20
2022-10-13T03:27:52.179Z,94.30
2022-10-13T03:28:52.342Z,94.60
2022-10-13T03:29:52.153Z,94.92
2022-10-13T03:30:52.158Z,95.02
2022-10-13T03:31:52.125Z,95.12
2022-10-13T03:32:52.126Z,95.23
2022-10-13T03:33:52.100Z,95.64
2022-10-13T03:34:52.139Z,95.84
2022-10-13T03:35:52.091Z,96.05
2022-10-13T03:36:52.088Z,96.15
2022-10-13T03:37:52.079Z,96.15
2022-10-13T03:38:52.058Z,96.25
2022-10-13T03:39:52.059Z,96.36
2022-10-13T03:40:52.038Z,96.42
2022-10-13T03:41:52.029Z,96.42
2022-10-13T03:42:51.997Z,96.31
2022-10-13T03:43:51.978Z,96.31
2022-10-13T03:44:56.099Z,96.31
2022-10-13T03:45:51.998Z,96.31
2022-10-13T03:46:51.977Z,96.21
2022-10-13T03:47:51.936Z,96.11
2022-10-13T03:48:51.925Z,95.80
2022-10-13T03:49:51.929Z,95.70
2022-10-13T03:50:51.905Z,95.90
2022-10-13T03:51:51.906Z,95.90
2022-10-13T03:52:51.916Z,95.70
2022-10-13T03:53:51.885Z,95.70
2022-10-13T03:54:51.829Z,95.80
2022-10-13T03:55:51.807Z,96.42
2022-10-13T03:56:51.805Z,96.52
2022-10-13T03:57:51.777Z,96.52
2022-10-13T03:58:51.788Z,96.52
2022-10-13T03:59:51.795Z,96.52
2022-10-13T04:00:51.739Z,96.52
2022-10-13T04:01:51.831Z,96.62
2022-10-13T04:02:51.714Z,96.62
2022-10-13T04:03:51.776Z,96.62
2022-10-13T04:04:51.716Z,96.72
2022-10-13T04:05:51.665Z,96.72
2022-10-13T04:06:51.686Z,96.72
2022-10-13T04:07:51.704Z,96.62
2022-10-13T04:08:51.644Z,96.52
2022-10-13T04:09:51.673Z,96.42
2022-10-13T04:10:51.613Z,96.42
2022-10-13T04:11:51.592Z,96.52
2022-10-13T04:12:51.614Z,96.62
2022-10-13T04:13:51.583Z,96.72
2022-10-13T04:14:51.545Z,96.72
2022-10-13T04:15:51.544Z,96.62
2022-10-13T04:16:51.527Z,96.52
2022-10-13T04:17:51.512Z,96.52
2022-10-13T04:18:51.532Z,96.31
2022-10-13T04:19:51.504Z,96.15
2022-10-13T04:20:51.513Z,95.84
2022-10-13T04:21:51.479Z,95.53
2022-10-13T04:22:51.491Z,95.23
2022-10-13T04:23:51.445Z,94.92
2022-10-13T04:24:51.425Z,94.60
2022-10-13T04:25:51.443Z,94.30
2022-10-13T04:26:51.441Z,93.88
2022-10-13T04:27:51.399Z,93.48
2022-10-13T04:28:51.423Z,93.27
2022-10-13T04:29:51.371Z,93.06
2022-10-13T04:30:51.361Z,92.65
2022-10-13T04:31:51.329Z,92.34
2022-10-13T04:32:51.340Z,92.24
2022-10-13T04:33:51.364Z,91.83
2022-10-13T04:34:51.281Z,91.93
2022-10-13T04:35:51.269Z,92.03
2022-10-13T04:36:51.280Z,92.18
2022-10-13T04:37:51.301Z,92.59
2022-10-13T04:38:51.246Z,92.59
2022-10-13T04:39:51.223Z,92.29
2022-10-13T04:40:51.214Z,91.56
2022-10-13T04:41:51.189Z,90.84
2022-10-13T04:42:51.240Z,90.33
2022-10-13T04:43:51.158Z,89.71
2022-10-13T04:44:51.168Z,89.29
2022-10-13T04:45:51.148Z,89.71
2022-10-13T04:46:51.150Z,90.12
2022-10-13T04:47:51.118Z,90.57
2022-10-13T04:48:51.117Z,90.47
2022-10-13T04:49:51.079Z,90.88
2022-10-13T04:50:51.098Z,91.09
2022-10-13T04:51:51.068Z,90.78
2022-10-13T04:52:51.078Z,90.78
2022-10-13T04:53:51.068Z,90.67
2022-10-13T04:54:51.051Z,90.47
2022-10-13T04:55:51.002Z,90.99
2022-10-13T04:56:51.006Z,91.60
2022-10-13T04:57:51.006Z,91.50
2022-10-13T04:58:50.989Z,91.50
2022-10-13T04:59:50.958Z,91.34
2022-10-13T05:00:50.986Z,91.03
2022-10-13T05:01:50.937Z,90.61
2022-10-13T05:02:50.926Z,90.92
2022-10-13T05:03:50.938Z,91.54
2022-10-13T05:04:50.898Z,91.54
2022-10-13T05:05:50.894Z,91.64
2022-10-13T05:07:16.532Z,91.64
2022-10-13T05:07:51.865Z,91.28
2022-10-13T05:08:50.854Z,90.86
2022-10-13T05:09:50.815Z,90.76
2022-10-13T05:10:50.838Z,90.14
2022-10-13T05:11:50.854Z,89.62
2022-10-13T05:12:50.815Z,89.83
2022-10-13T05:13:50.766Z,89.32
2022-10-13T05:14:50.765Z,89.01
2022-10-13T05:15:50.737Z,88.39
2022-10-13T05:16:50.754Z,88.08
2022-10-13T05:17:50.754Z,88.39
2022-10-13T05:18:50.833Z,89.15
2022-10-13T05:19:50.705Z,89.87
2022-10-13T05:20:50.684Z,90.19
2022-10-13T05:21:50.673Z,91.01
2022-10-13T05:22:50.646Z,91.73
2022-10-13T05:23:50.623Z,92.04
2022-10-13T05:24:50.614Z,92.25
2022-10-13T05:25:50.602Z,92.46
2022-10-13T05:26:50.605Z,92.55
2022-10-13T05:27:50.572Z,92.66
2022-10-13T05:28:50.596Z,92.86
2022-10-13T05:29:50.634Z,92.97
2022-10-13T05:30:50.531Z,92.76
2022-10-13T05:31:50.553Z,92.46
2022-10-13T05:32:53.867Z,92.04
2022-10-13T05:33:50.521Z,91.67
2022-10-13T05:34:50.548Z,91.26
2022-10-13T05:35:50.492Z,90.64
2022-10-13T05:36:50.460Z,90.12
2022-10-13T05:37:50.450Z,89.92
2022-10-13T05:38:50.440Z,89.61
2022-10-13T05:39:50.418Z,89.19
2022-10-13T05:40:50.419Z,88.98
2022-10-13T05:41:50.410Z,88.57
2022-10-13T05:42:50.381Z,88.26
2022-10-13T05:43:50.370Z,88.47
2022-10-13T05:44:50.357Z,88.37
2022-10-13T05:45:50.353Z,87.95
2022-10-13T05:46:50.329Z,87.54
2022-10-13T05:47:50.309Z,87.34
2022-10-13T05:48:50.296Z,87.02
2022-10-13T05:49:50.298Z,86.76
2022-10-13T05:50:50.268Z,86.44
2022-10-13T05:51:50.289Z,86.41
2022-10-13T05:52:50.286Z,86.71
2022-10-13T05:53:54.119Z,86.55
2022-10-13T05:54:51.308Z,86.51
2022-10-13T05:55:50.261Z,86.10
2022-10-13T05:56:50.252Z,86.10
2022-10-13T05:57:50.237Z,86.10
2022-10-13T05:58:50.297Z,86.41
2022-10-13T05:59:50.177Z,86.71
2022-10-13T06:00:50.238Z,86.71
2022-10-13T06:01:50.207Z,86.82
2022-10-13T06:02:50.190Z,87.74
2022-10-13T06:03:50.150Z,88.06
2022-10-13T06:04:50.106Z,88.78
2022-10-13T06:05:50.117Z,88.89
2022-10-13T06:06:50.339Z,88.98
2022-10-13T06:07:50.087Z,88.84
2022-10-13T06:08:50.035Z,88.22
2022-10-13T06:09:50.066Z,88.12
2022-10-13T06:10:50.084Z,88.43
2022-10-13T06:11:50.018Z,88.43
2022-10-13T06:12:50.007Z,89.25
2022-10-13T06:13:49.996Z,89.67
2022-10-13T06:14:50.028Z,90.08
2022-10-13T06:15:50.041Z,90.04
2022-10-13T06:16:50.023Z,89.42
2022-10-13T06:17:49.935Z,88.70
2022-10-13T06:18:49.959Z,88.49
2022-10-13T06:19:49.904Z,87.98
2022-10-13T06:20:49.923Z,88.04
2022-10-13T06:21:49.893Z,87.93
2022-10-13T06:22:49.853Z,87.63
2022-10-13T06:23:49.913Z,87.01
2022-10-13T06:24:53.637Z,86.39
2022-10-13T06:25:49.834Z,85.67
2022-10-13T06:26:49.803Z,84.94
2022-10-13T06:27:49.820Z,84.19
2022-10-13T06:28:51.777Z,83.77
2022-10-13T06:29:49.787Z,83.77
2022-10-13T06:30:49.781Z,83.67
2022-10-13T06:31:49.792Z,83.98
2022-10-13T06:32:49.772Z,84.91
2022-10-13T06:33:49.762Z,85.69
2022-10-13T06:34:49.722Z,86.10
2022-10-13T06:35:49.693Z,87.24
2022-10-13T06:36:49.663Z,87.60
2022-10-13T06:37:49.652Z,87.81
2022-10-13T06:38:49.633Z,88.23
2022-10-13T06:39:49.630Z,88.39
2022-10-13T06:40:49.621Z,88.39
2022-10-13T06:41:49.608Z,88.80
2022-10-13T06:42:49.582Z,89.17
2022-10-13T06:43:49.586Z,89.69
2022-10-13T06:44:49.570Z,90.30
2022-10-13T06:45:49.561Z,90.67
2022-10-13T06:46:49.530Z,90.98
2022-10-13T06:47:49.528Z,91.19
2022-10-13T06:48:49.502Z,90.94
2022-10-13T06:49:49.500Z,90.83
2022-10-13T06:50:49.484Z,91.31
2022-10-13T06:51:49.470Z,91.72
2022-10-13T06:52:49.461Z,91.57
2022-10-13T06:53:49.450Z,91.57
2022-10-13T06:54:49.420Z,92.08
2022-10-13T06:55:52.447Z,92.35
2022-10-13T06:56:49.399Z,92.10
2022-10-13T06:57:49.410Z,91.80
2022-10-13T06:58:49.378Z,92.00
2022-10-13T06:59:49.366Z,92.36
2022-10-13T07:00:49.395Z,92.83
2022-10-13T07:01:49.338Z,93.25
2022-10-13T07:02:49.318Z,93.20
2022-10-13T07:03:49.320Z,93.10
2022-10-13T07:04:49.316Z,92.85
2022-10-13T07:05:49.311Z,93.01
2022-10-13T07:06:49.273Z,92.91
2022-10-13T07:07:49.259Z,92.56
2022-10-13T07:08:49.259Z,92.11
2022-10-13T07:09:49.227Z,91.86
2022-10-13T07:10:49.227Z,91.41
2022-10-13T07:11:49.215Z,90.51
2022-10-13T07:12:49.207Z,89.20
2022-10-13T07:13:49.191Z,87.38
2022-10-13T07:14:49.183Z,86.02
2022-10-13T07:15:49.168Z,84.97
2022-10-13T07:16:49.136Z,84.11
2022-10-13T07:17:49.121Z,83.70
2022-10-13T07:18:49.105Z,83.81
2022-10-13T07:19:49.088Z,83.15
2022-10-13T07:20:49.088Z,82.95
2022-10-13T07:21:49.066Z,82.20
2022-10-13T07:22:49.057Z,82.51
2022-10-13T07:23:49.057Z,82.67
2022-10-13T07:24:49.036Z,82.47
2022-10-13T07:25:49.034Z,82.03
2022-10-13T07:26:49.006Z,81.41
2022-10-13T07:27:48.985Z,80.91
2022-10-13T07:28:49.050Z,80.57
2022-10-13T07:29:48.976Z,79.82
2022-10-13T07:30:48.966Z,78.87
2022-10-13T07:31:48.945Z,78.22
2022-10-13T07:32:48.918Z,77.88
2022-10-13T07:33:48.896Z,76.93
2022-10-13T07:34:48.886Z,76.70
2022-10-13T07:35:48.884Z,75.95
2022-10-13T07:36:48.855Z,75.10
2022-10-13T07:37:48.845Z,74.02
2022-10-13T07:38:48.835Z,72.71
2022-10-13T07:39:48.827Z,72.68
2022-10-13T07:40:48.826Z,71.70
2022-10-13T07:41:51.060Z,72.21
2022-10-13T07:42:48.785Z,72.85
2022-10-13T07:43:48.765Z,72.34
2022-10-13T07:44:48.773Z,72.48
2022-10-13T07:45:48.747Z,73.19
2022-10-13T07:46:48.726Z,73.52
2022-10-13T07:47:48.715Z,73.83
2022-10-13T07:48:48.697Z,74.07
2022-10-13T07:49:48.696Z,74.27
2022-10-13T07:50:48.696Z,75.01
2022-10-13T07:51:48.669Z,75.31
2022-10-13T07:52:48.668Z,75.72
2022-10-13T07:53:48.638Z,74.81
2022-10-13T07:54:48.648Z,76.53
2022-10-13T07:55:48.596Z,76.73
2022-10-13T07:56:48.647Z,76.53
2022-10-13T07:57:48.579Z,77.34
2022-10-13T07:58:48.576Z,77.14
2022-10-13T07:59:48.558Z,77.34
2022-10-13T08:00:48.559Z,76.53
2022-10-13T08:01:48.536Z,76.79
2022-10-13T08:02:48.536Z,77.10
2022-10-13T08:03:50.348Z,76.76
2022-10-13T08:04:48.509Z,76.66
2022-10-13T08:05:48.490Z,75.81
2022-10-13T08:06:48.500Z,74.90
2022-10-13T08:07:48.447Z,75.07
2022-10-13T08:08:48.437Z,74.06
2022-10-13T08:09:48.428Z,74.37
2022-10-13T08:10:48.464Z,74.06
2022-10-13T08:11:48.399Z,73.82
2022-10-13T08:12:48.390Z,72.88
2022-10-13T08:13:48.370Z,73.18
2022-10-13T08:15:48.400Z,72.21
2022-10-13T08:16:50.084Z,71.91
2022-10-13T08:17:48.318Z,71.10
2022-10-13T08:18:48.337Z,73.05
2022-10-13T08:19:48.298Z,73.35
2022-10-13T08:20:48.298Z,73.55
2022-10-13T08:22:06.647Z,73.46
2022-10-13T08:22:49.271Z,73.15
2022-10-13T08:23:48.227Z,72.85
2022-10-13T08:24:48.239Z,74.06
2022-10-13T08:25:48.221Z,73.55
2022-10-13T08:26:48.215Z,73.66
2022-10-13T08:27:52.493Z,74.13
2022-10-13T08:29:09.655Z,74.40
2022-10-13T08:29:49.160Z,73.85
2022-10-13T08:30:48.331Z,72.91
2022-10-13T08:32:48.127Z,71.30
2022-10-13T08:33:48.126Z,70.69
2022-10-13T08:34:48.103Z,70.59
2022-10-13T08:35:48.080Z,71.00
2022-10-13T08:36:48.089Z,70.32
2022-10-13T08:37:48.050Z,71.03
2022-10-13T08:38:48.039Z,71.64
2022-10-13T08:39:48.023Z,71.73
2022-10-13T08:40:48.029Z,73.18
2022-10-13T08:41:47.989Z,72.48
2022-10-13T08:42:47.989Z,72.58
2022-10-13T08:44:24.656Z,72.04
2022-10-13T08:45:16.100Z,71.64
2022-10-13T08:45:48.940Z,71.91
2022-10-13T08:46:47.920Z,70.69
2022-10-13T08:47:47.921Z,71.40
2022-10-13T08:48:47.925Z,71.50
2022-10-13T08:49:47.888Z,70.26
2022-10-13T08:50:47.869Z,70.26
2022-10-13T08:51:47.859Z,70.97
2022-10-13T08:52:47.849Z,70.83
2022-10-13T08:53:47.840Z,70.50
2022-10-13T08:54:47.811Z,69.89
2022-10-13T08:55:47.806Z,69.65
2022-10-13T08:56:47.808Z,69.25
2022-10-13T08:57:47.779Z,68.01
2022-10-13T08:58:47.770Z,66.77
2022-10-13T08:59:47.757Z,67.47
2022-10-13T09:00:47.747Z,65.64
2022-10-13T09:01:47.809Z,66.44
2022-10-13T09:02:47.711Z,64.90
2022-10-13T09:03:47.709Z,65.10
2022-10-13T09:04:47.679Z,65.41
2022-10-13T09:05:47.659Z,65.10
2022-10-13T09:06:47.669Z,65.41
2022-10-13T09:07:47.711Z,65.60
2022-10-13T09:08:47.629Z,65.10
2022-10-13T09:09:47.610Z,65.50
2022-10-13T09:10:47.606Z,64.90
2022-10-13T09:11:47.592Z,65.50
2022-10-13T09:12:47.582Z,66.00
2022-10-13T09:13:47.559Z,66.00
2022-10-13T09:14:47.571Z,65.17
2022-10-13T09:15:47.535Z,65.27
2022-10-13T09:16:47.531Z,65.27
2022-10-13T09:17:47.519Z,65.47
2022-10-13T09:18:47.499Z,65.57
2022-10-13T09:19:47.485Z,65.47
2022-10-13T09:20:47.482Z,65.17
2022-10-13T09:21:47.453Z,64.77
2022-10-13T09:22:47.480Z,64.67
2022-10-13T09:23:47.424Z,63.96
2022-10-13T09:24:47.428Z,64.87
2022-10-13T09:25:47.397Z,64.80
2022-10-13T09:26:47.397Z,64.70
2022-10-13T09:27:47.388Z,64.27
2022-10-13T09:28:47.440Z,63.90
2022-10-13T09:29:47.350Z,64.70
2022-10-13T09:30:47.367Z,64.67
2022-10-13T09:31:47.332Z,64.77
2022-10-13T09:32:47.321Z,64.64
2022-10-13T09:33:47.292Z,64.54
2022-10-13T09:34:47.286Z,64.61
2022-10-13T09:35:47.262Z,63.81
2022-10-13T09:36:47.270Z,62.97
2022-10-13T09:37:47.251Z,62.67
2022-10-13T09:38:47.230Z,62.24
2022-10-13T09:39:47.210Z,61.91
2022-10-13T09:40:47.213Z,62.31
2022-10-13T09:41:47.198Z,62.31
2022-10-13T09:42:47.207Z,61.48
2022-10-13T09:43:47.163Z,61.18
2022-10-13T09:44:47.169Z,61.45
2022-10-13T09:45:47.144Z,61.55
2022-10-13T09:46:47.133Z,60.45
2022-10-13T09:47:47.112Z,60.65
2022-10-13T09:48:47.092Z,59.75
2022-10-13T09:49:47.082Z,59.82
2022-10-13T09:50:47.070Z,60.02
2022-10-13T09:51:47.052Z,59.82
2022-10-13T09:52:47.066Z,59.22
2022-10-13T09:53:47.040Z,59.89
2022-10-13T09:54:47.011Z,59.19
2022-10-13T09:55:47.011Z,58.99
2022-10-13T09:56:46.993Z,59.49
2022-10-13T09:57:46.981Z,58.89
2022-10-13T09:58:46.975Z,57.92
2022-10-13T09:59:46.942Z,58.82
2022-10-13T10:00:46.942Z,59.02
2022-10-13T10:01:47.029Z,59.32
2022-10-13T10:02:46.923Z,58.82
2022-10-13T10:03:46.956Z,58.45
2022-10-13T10:04:46.881Z,58.65
2022-10-13T10:05:46.872Z,59.05
2022-10-13T10:06:46.862Z,59.65
2022-10-13T10:07:46.855Z,58.68
2022-10-13T10:09:03.782Z,59.78
2022-10-13T10:09:47.825Z,59.48
2022-10-13T10:10:46.824Z,58.78
2022-10-13T10:11:46.801Z,59.20
2022-10-13T10:12:46.793Z,60.11
2022-10-13T10:13:46.766Z,60.21
2022-10-13T10:14:46.753Z,60.33
2022-10-13T10:15:46.744Z,60.24
2022-10-13T10:16:46.731Z,60.64
2022-10-13T10:17:46.713Z,60.33
2022-10-13T10:18:46.701Z,60.53
2022-10-13T10:19:46.683Z,60.66
2022-10-13T10:20:46.672Z,60.86
2022-10-13T10:21:46.676Z,60.86
2022-10-13T10:22:46.643Z,61.27
2022-10-13T10:23:46.632Z,61.07
2022-10-13T10:24:46.620Z,61.07
2022-10-13T10:25:46.603Z,60.89
2022-10-13T10:26:46.593Z,61.40
2022-10-13T10:27:46.583Z,61.50
2022-10-13T10:28:46.626Z,61.50
2022-10-13T10:29:46.554Z,61.72
2022-10-13T10:30:46.543Z,61.72
2022-10-13T10:31:46.544Z,61.63
2022-10-13T10:32:46.511Z,61.72
2022-10-13T10:33:46.493Z,62.46
2022-10-13T10:34:46.481Z,62.86
2022-10-13T10:35:46.483Z,63.26
2022-10-13T10:36:46.463Z,63.67
2022-10-13T10:37:46.444Z,64.17
2022-10-13T10:38:46.432Z,63.87
2022-10-13T10:39:46.425Z,64.17
2022-10-13T10:40:46.410Z,64.27
2022-10-13T10:41:46.403Z,63.76
2022-10-13T10:42:51.150Z,63.39
2022-10-13T10:43:47.374Z,64.27
2022-10-13T10:45:46.364Z,64.50
2022-10-13T10:46:46.345Z,64.20
2022-10-13T10:47:46.305Z,64.50
2022-10-13T10:48:46.299Z,64.60
2022-10-13T10:49:46.284Z,64.50
2022-10-13T10:50:46.277Z,64.60
2022-10-13T10:51:46.274Z,64.70
2022-10-13T10:52:46.244Z,64.60
2022-10-13T10:53:46.234Z,64.47
2022-10-13T10:54:49.074Z,64.10
2022-10-13T10:55:46.210Z,63.90
2022-10-13T10:56:46.204Z,63.90
2022-10-13T10:57:46.174Z,64.10
2022-10-13T10:58:46.164Z,64.40
2022-10-13T10:59:49.114Z,64.30
2022-10-13T11:00:46.147Z,63.59
2022-10-13T11:01:46.200Z,64.00
2022-10-13T11:02:46.114Z,64.10
2022-10-13T11:03:46.107Z,64.40
2022-10-13T11:04:46.093Z,64.23
2022-10-13T11:05:46.078Z,64.53
2022-10-13T11:06:46.054Z,64.63
2022-10-13T11:07:46.085Z,64.83
2022-10-13T11:08:46.042Z,65.03
2022-10-13T11:09:46.016Z,65.06
2022-10-13T11:10:46.036Z,65.26
2022-10-13T11:11:45.985Z,65.26
2022-10-13T11:12:45.975Z,65.06
2022-10-13T11:13:45.975Z,65.06
2022-10-13T11:14:45.957Z,64.96
2022-10-13T11:15:45.955Z,65.06
2022-10-13T11:16:45.916Z,64.66
2022-10-13T11:17:45.924Z,64.96
2022-10-13T11:18:45.907Z,64.66
2022-10-13T11:19:45.886Z,64.36
2022-10-13T11:20:45.886Z,64.86
2022-10-13T11:21:45.862Z,64.76
2022-10-13T11:22:45.846Z,63.85
2022-10-13T11:23:45.835Z,64.26
2022-10-13T11:24:45.815Z,64.46
2022-10-13T11:25:45.827Z,64.36
2022-10-13T11:26:45.794Z,64.63
2022-10-13T11:27:45.811Z,64.43
2022-10-13T11:28:45.815Z,64.43
2022-10-13T11:29:45.762Z,64.53
2022-10-13T11:30:45.746Z,64.43
2022-10-13T11:31:45.737Z,63.32
2022-10-13T11:32:45.719Z,63.59
2022-10-13T11:33:45.699Z,63.59
2022-10-13T11:34:45.689Z,64.20
2022-10-13T11:35:45.677Z,63.67
2022-10-13T11:36:45.655Z,62.96
2022-10-13T11:37:51.716Z,62.56
2022-10-13T11:38:46.627Z,63.26
2022-10-13T11:39:45.620Z,63.36
2022-10-13T11:40:45.619Z,63.06
2022-10-13T11:41:45.598Z,62.56
2022-10-13T11:42:45.583Z,63.06
2022-10-13T11:43:45.586Z,62.93
2022-10-13T11:44:45.687Z,62.53
2022-10-13T11:45:45.560Z,62.93
2022-10-13T11:46:45.546Z,62.70
2022-10-13T11:47:45.516Z,62.10
2022-10-13T11:48:45.508Z,62.30
2022-10-13T11:49:45.497Z,61.50
2022-10-13T11:50:45.475Z,61.30
2022-10-13T11:51:45.461Z,62.10
2022-10-13T11:52:45.441Z,62.30
2022-10-13T11:53:45.447Z,62.60
2022-10-13T11:54:45.450Z,61.70
2022-10-13T11:55:45.408Z,62.00
2022-10-13T11:56:48.447Z,62.50
2022-10-13T11:57:45.378Z,61.90
2022-10-13T11:58:45.359Z,61.70
2022-10-13T11:59:45.360Z,61.90
2022-10-13T12:00:45.331Z,62.03
2022-10-13T12:01:45.321Z,62.13
2022-10-13T12:02:45.334Z,62.13
2022-10-13T12:03:45.299Z,62.13
2022-10-13T12:04:46.767Z,62.23
2022-10-13T12:05:45.270Z,62.63
2022-10-13T12:06:45.251Z,62.16
2022-10-13T12:07:45.260Z,62.43
2022-10-13T12:08:45.231Z,62.23
2022-10-13T12:09:45.232Z,61.96
2022-10-13T12:10:45.209Z,62.36
2022-10-13T12:11:45.194Z,62.06
2022-10-13T12:12:45.179Z,62.26
2022-10-13T12:13:45.171Z,62.76
2022-10-13T12:14:45.170Z,61.96
2022-10-13T12:15:45.152Z,62.56
2022-10-13T12:16:45.187Z,62.86
2022-10-13T12:17:45.110Z,62.26
2022-10-13T12:18:45.111Z,62.16
2022-10-13T12:19:45.101Z,62.26
2022-10-13T12:20:45.070Z,62.96
2022-10-13T12:21:45.062Z,62.93
2022-10-13T12:22:45.054Z,62.03
2022-10-13T12:23:45.031Z,62.53
2022-10-13T12:24:45.045Z,61.63
2022-10-13T12:25:45.012Z,62.43
2022-10-13T12:26:44.993Z,62.80
2022-10-13T12:27:44.981Z,62.60
2022-10-13T12:28:45.014Z,62.70
2022-10-13T12:29:44.981Z,62.57
2022-10-13T12:30:44.947Z,62.57
2022-10-13T12:31:44.933Z,62.34
2022-10-13T12:32:44.922Z,61.44
2022-10-13T12:33:44.902Z,60.74
2022-10-13T12:34:44.890Z,61.14
2022-10-13T12:35:44.874Z,60.91
2022-10-13T12:36:44.903Z,61.11
2022-10-13T12:37:44.845Z,60.84
2022-10-13T12:38:44.832Z,60.53
2022-10-13T12:39:44.846Z,60.44
2022-10-13T12:40:44.803Z,60.74
2022-10-13T12:41:44.820Z,59.77
2022-10-13T12:42:44.773Z,60.66
2022-10-13T12:43:44.772Z,60.16
2022-10-13T12:44:44.823Z,60.29
2022-10-13T12:45:44.745Z,61.10
2022-10-13T12:46:44.723Z,61.07
2022-10-13T12:47:44.721Z,61.17
2022-10-13T12:48:44.695Z,61.36
2022-10-13T12:49:44.718Z,61.07
2022-10-13T12:50:44.670Z,61.67
2022-10-13T12:51:44.664Z,60.86
2022-10-13T12:52:44.646Z,59.86
2022-10-13T12:53:44.636Z,58.89
2022-10-13T12:54:44.625Z,59.19
2022-10-13T12:55:44.624Z,59.49